Time;durP1;ratioP1;P1;durP2;ratioP2;P2;SDS_P1;SDS_P2;PMS_P1;PMS_P2;Temp;Humidity;BMP_temperature;BMP_pressure;BME280_temperature;BME280_humidity;BME280_pressure;Samples;Min_cycle;Max_cycle;Signal;HPM_P1;HPM_P2
2023/06/10 00:00:48;;;;;;;12.10;11.50;;;;;;;;;;4984694;28;20038;-63
2023/06/10 00:03:14;;;;;;;13.07;12.38;;;;;;;;;;4986501;28;20042;-63
2023/06/10 00:05:39;;;;;;;12.55;11.95;;;;;;;;;;4982462;28;20470;-63
2023/06/10 00:08:08;;;;;;;12.35;11.75;;;;;;;;;;4987471;28;20077;-62
2023/06/10 00:10:37;;;;;;;13.10;12.40;;;;;;;;;;4988303;28;20022;-62
2023/06/10 00:13:03;;;;;;;11.82;11.32;;;;;;;;;;4986045;28;20027;-64
2023/06/10 00:15:29;;;;;;;12.20;11.60;;;;;;;;;;4988961;28;20045;-64
2023/06/10 00:17:54;;;;;;;12.30;11.70;;;;;;;;;;4990822;28;20022;-63
2023/06/10 00:20:23;;;;;;;12.40;11.80;;;;;;;;;;4982090;28;20045;-63
2023/06/10 00:22:49;;;;;;;12.20;11.60;;;;;;;;;;4986105;28;20155;-63
2023/06/10 00:25:14;;;;;;;12.23;11.63;;;;;;;;;;4989988;28;20050;-63
2023/06/10 00:27:40;;;;;;;12.93;12.25;;;;;;;;;;4989250;28;20030;-64
2023/06/10 00:30:06;;;;;;;11.55;11.05;;;;;;;;;;4986561;28;20015;-63
2023/06/10 00:32:35;;;;;;;12.65;12.05;;;;;;;;;;4976775;28;20030;-63
2023/06/10 00:35:01;;;;;;;12.05;11.45;;;;;;;;;;4987125;28;20026;-63
2023/06/10 00:37:27;;;;;;;12.20;11.60;;;;;;;;;;4983944;28;20073;-63
2023/06/10 00:39:52;;;;;;;12.30;11.70;;;;;;;;;;4988331;28;20023;-63
2023/06/10 00:42:17;;;;;;;11.70;11.20;;;;;;;;;;4986022;28;20015;-63
2023/06/10 00:44:42;;;;;;;12.57;11.98;;;;;;;;;;4983009;28;20029;-64
2023/06/10 00:47:08;;;;;;;13.32;12.63;;;;;;;;;;4978300;28;20102;-63
2023/06/10 00:49:34;;;;;;;12.18;11.57;;;;;;;;;;4979890;28;20517;-63
2023/06/10 00:51:59;;;;;;;12.30;11.70;;;;;;;;;;4979054;28;20436;-64
2023/06/10 00:54:25;;;;;;;12.02;11.43;;;;;;;;;;4983630;28;20386;-63
2023/06/10 00:56:51;;;;;;;12.30;11.70;;;;;;;;;;4987458;28;20026;-65
2023/06/10 00:59:17;;;;;;;11.73;11.13;;;;;;;;;;4985936;28;20109;-63
2023/06/10 01:01:43;;;;;;;12.75;12.10;;;;;;;;;;4989701;28;20030;-63
2023/06/10 01:04:11;;;;;;;12.15;11.55;;;;;;;;;;4976824;28;20034;-63
2023/06/10 01:06:47;;;;;;;12.35;11.75;;;;;;;;;;4987124;28;20018;-63
2023/06/10 01:09:21;;;;;;;11.95;11.35;;;;;;;;;;4987321;28;20490;-64
2023/06/10 01:11:48;;;;;;;13.23;12.52;;;;;;;;;;4979825;28;20022;-63
2023/06/10 01:14:14;;;;;;;11.95;11.38;;;;;;;;;;4985222;28;20019;-63
2023/06/10 01:16:40;;;;;;;12.10;11.50;;;;;;;;;;4988293;28;20100;-64
2023/06/10 01:19:06;;;;;;;11.90;11.32;;;;;;;;;;4988084;28;20081;-63
2023/06/10 01:21:32;;;;;;;13.00;12.30;;;;;;;;;;4983354;28;20124;-64
2023/06/10 01:23:57;;;;;;;12.13;11.52;;;;;;;;;;4989584;28;20060;-63
2023/06/10 01:26:28;;;;;;;13.05;12.35;;;;;;;;;;4982765;28;20049;-64
2023/06/10 01:29:02;;;;;;;12.50;11.90;;;;;;;;;;4977801;28;20375;-64
2023/06/10 01:31:33;;;;;;;11.73;11.20;;;;;;;;;;4989768;28;20021;-64
2023/06/10 01:33:59;;;;;;;13.10;12.40;;;;;;;;;;4984748;28;20023;-63
2023/06/10 01:36:24;;;;;;;12.23;11.63;;;;;;;;;;4993123;28;20105;-63
2023/06/10 01:38:50;;;;;;;11.93;11.35;;;;;;;;;;4993655;28;20033;-64
2023/06/10 01:41:21;;;;;;;12.57;11.98;;;;;;;;;;4992294;28;20034;-63
2023/06/10 01:43:47;;;;;;;12.45;11.85;;;;;;;;;;4993597;28;20085;-62
2023/06/10 01:46:12;;;;;;;12.90;12.20;;;;;;;;;;4988964;28;20042;-64
2023/06/10 01:48:38;;;;;;;12.55;11.95;;;;;;;;;;4980003;28;20077;-65
2023/06/10 01:51:03;;;;;;;11.60;11.10;;;;;;;;;;4991429;28;20389;-63
2023/06/10 01:53:29;;;;;;;12.20;11.60;;;;;;;;;;4987611;28;20019;-63
2023/06/10 01:55:54;;;;;;;12.70;12.10;;;;;;;;;;4991703;28;20019;-63
2023/06/10 01:58:19;;;;;;;12.40;11.80;;;;;;;;;;5002050;28;20030;-64
2023/06/10 02:00:45;;;;;;;12.95;12.27;;;;;;;;;;4991431;28;20022;-64
2023/06/10 02:03:10;;;;;;;12.07;11.48;;;;;;;;;;4995963;28;20057;-64
2023/06/10 02:05:35;;;;;;;11.90;11.35;;;;;;;;;;4984420;28;20023;-63
2023/06/10 02:08:01;;;;;;;11.63;11.10;;;;;;;;;;4985251;28;20058;-63
2023/06/10 02:10:26;;;;;;;12.40;11.80;;;;;;;;;;4989618;28;20367;-63
2023/06/10 02:12:51;;;;;;;13.15;12.45;;;;;;;;;;4982429;28;20089;-63
2023/06/10 02:15:17;;;;;;;11.45;10.95;;;;;;;;;;4990684;28;20054;-62
2023/06/10 02:17:42;;;;;;;12.73;12.10;;;;;;;;;;4990960;28;20557;-62
2023/06/10 02:20:10;;;;;;;12.03;11.43;;;;;;;;;;4989236;28;20037;-62
2023/06/10 02:22:36;;;;;;;12.35;11.75;;;;;;;;;;4983254;28;20387;-63
2023/06/10 02:25:01;;;;;;;12.13;11.52;;;;;;;;;;4983183;28;20509;-62
2023/06/10 02:27:27;;;;;;;12.40;11.80;;;;;;;;;;4987115;28;20486;-62
2023/06/10 02:29:52;;;;;;;12.55;11.95;;;;;;;;;;4992344;28;20047;-64
2023/06/10 02:32:17;;;;;;;11.60;11.10;;;;;;;;;;4990535;28;20390;-62
2023/06/10 02:34:43;;;;;;;12.68;12.05;;;;;;;;;;4991895;28;20026;-63
2023/06/10 02:37:08;;;;;;;11.70;11.20;;;;;;;;;;4992709;28;20026;-64
2023/06/10 02:39:34;;;;;;;12.40;11.80;;;;;;;;;;4986835;28;20037;-63
2023/06/10 02:41:59;;;;;;;12.23;11.63;;;;;;;;;;4986006;28;20038;-63
2023/06/10 02:44:25;;;;;;;12.77;12.07;;;;;;;;;;4988638;28;21080;-63
2023/06/10 02:46:50;;;;;;;12.52;11.93;;;;;;;;;;4996996;28;20500;-63
2023/06/10 02:49:15;;;;;;;12.52;11.93;;;;;;;;;;4987782;28;20053;-63
2023/06/10 02:51:41;;;;;;;12.20;11.60;;;;;;;;;;4987667;28;20032;-64
2023/06/10 02:54:06;;;;;;;11.32;10.82;;;;;;;;;;4987064;28;20023;-64
2023/06/10 02:56:32;;;;;;;12.55;11.95;;;;;;;;;;4983101;28;20368;-64
2023/06/10 02:58:58;;;;;;;12.50;11.90;;;;;;;;;;4990989;28;20038;-64
2023/06/10 03:01:23;;;;;;;12.80;12.20;;;;;;;;;;4990472;28;20037;-63
2023/06/10 03:03:50;;;;;;;12.05;11.45;;;;;;;;;;4987714;28;20026;-63
2023/06/10 03:06:15;;;;;;;11.68;11.18;;;;;;;;;;4983270;28;20018;-63
2023/06/10 03:08:41;;;;;;;12.23;11.63;;;;;;;;;;4987920;28;20073;-63
2023/06/10 03:11:06;;;;;;;12.35;11.75;;;;;;;;;;4992036;28;20073;-63
2023/06/10 03:13:31;;;;;;;13.43;12.73;;;;;;;;;;4983176;28;20038;-62
2023/06/10 03:15:57;;;;;;;12.20;11.60;;;;;;;;;;4978643;28;20465;-63
2023/06/10 03:18:25;;;;;;;12.23;11.63;;;;;;;;;;4990523;28;20442;-62
2023/06/10 03:20:51;;;;;;;12.02;11.43;;;;;;;;;;4986654;28;20026;-63
2023/06/10 03:23:17;;;;;;;11.60;11.10;;;;;;;;;;4989710;28;20038;-63
2023/06/10 03:25:42;;;;;;;13.20;12.50;;;;;;;;;;4981362;28;20045;-62
2023/06/10 03:28:07;;;;;;;12.40;11.80;;;;;;;;;;4990743;28;20034;-62
2023/06/10 03:30:32;;;;;;;12.13;11.53;;;;;;;;;;4988203;28;20097;-64
2023/06/10 03:32:58;;;;;;;12.68;12.05;;;;;;;;;;4987989;28;20276;-63
2023/06/10 03:35:23;;;;;;;11.35;10.85;;;;;;;;;;4989105;28;20026;-63
2023/06/10 03:37:48;;;;;;;12.23;11.63;;;;;;;;;;4981221;28;20500;-64
2023/06/10 03:40:13;;;;;;;12.27;11.68;;;;;;;;;;4989488;28;20073;-63
2023/06/10 03:42:39;;;;;;;12.60;12.00;;;;;;;;;;4991009;28;20030;-63
2023/06/10 03:45:05;;;;;;;12.23;11.63;;;;;;;;;;4987165;28;20505;-63
2023/06/10 03:47:35;;;;;;;12.60;12.00;;;;;;;;;;4986723;28;20085;-62
2023/06/10 03:50:01;;;;;;;11.93;11.32;;;;;;;;;;4983443;28;20106;-64
2023/06/10 03:52:26;;;;;;;12.50;11.90;;;;;;;;;;4981537;28;20106;-64
2023/06/10 03:54:51;;;;;;;11.70;11.20;;;;;;;;;;4984333;28;20461;-63
2023/06/10 03:57:16;;;;;;;12.60;12.00;;;;;;;;;;4988299;28;20706;-63
2023/06/10 03:59:42;;;;;;;12.70;12.10;;;;;;;;;;4981279;28;20085;-63
2023/06/10 04:02:08;;;;;;;11.80;11.30;;;;;;;;;;4985224;28;20344;-64
2023/06/10 04:04:33;;;;;;;12.45;11.85;;;;;;;;;;4985874;28;20111;-61
2023/06/10 04:06:59;;;;;;;11.52;11.02;;;;;;;;;;4983120;28;20106;-62
2023/06/10 04:09:24;;;;;;;11.70;11.20;;;;;;;;;;4983805;28;20061;-63
2023/06/10 04:11:49;;;;;;;12.27;11.67;;;;;;;;;;4978505;28;20709;-63
2023/06/10 04:14:15;;;;;;;11.85;11.35;;;;;;;;;;4989865;28;20300;-63
2023/06/10 04:16:41;;;;;;;12.50;11.90;;;;;;;;;;4987901;28;20026;-64
2023/06/10 04:19:07;;;;;;;12.45;11.85;;;;;;;;;;4985246;28;20074;-64
2023/06/10 04:21:32;;;;;;;12.25;11.65;;;;;;;;;;4984290;28;20034;-62
2023/06/10 04:23:58;;;;;;;11.80;11.30;;;;;;;;;;4989239;28;20053;-65
2023/06/10 04:26:23;;;;;;;11.80;11.30;;;;;;;;;;4989224;28;20108;-63
2023/06/10 04:28:48;;;;;;;12.80;12.20;;;;;;;;;;4989952;28;20030;-64
2023/06/10 04:31:13;;;;;;;12.43;11.82;;;;;;;;;;4987151;28;20019;-63
2023/06/10 04:33:39;;;;;;;12.40;11.80;;;;;;;;;;4988352;28;20809;-63
2023/06/10 04:36:06;;;;;;;12.65;12.05;;;;;;;;;;4988026;28;20035;-63
2023/06/10 04:38:31;;;;;;;12.63;12.02;;;;;;;;;;4988417;28;20164;-63
2023/06/10 04:40:57;;;;;;;12.18;11.57;;;;;;;;;;4982959;28;20478;-63
2023/06/10 04:43:22;;;;;;;12.80;12.20;;;;;;;;;;4992537;28;20018;-63
2023/06/10 04:45:47;;;;;;;11.85;11.35;;;;;;;;;;4989395;28;20474;-63
2023/06/10 04:48:13;;;;;;;11.98;11.40;;;;;;;;;;4982707;28;20023;-62
2023/06/10 04:50:39;;;;;;;12.30;11.70;;;;;;;;;;4986608;28;20034;-64
2023/06/10 04:53:04;;;;;;;11.80;11.30;;;;;;;;;;4985565;28;20109;-63
2023/06/10 04:55:29;;;;;;;12.80;12.20;;;;;;;;;;4988759;28;20026;-63
2023/06/10 04:57:55;;;;;;;12.10;11.50;;;;;;;;;;4986834;28;20018;-63
2023/06/10 05:00:20;;;;;;;12.05;11.50;;;;;;;;;;4989541;28;20434;-64
2023/06/10 05:02:49;;;;;;;12.20;11.60;;;;;;;;;;4985946;28;20022;-64
2023/06/10 05:05:15;;;;;;;12.20;11.60;;;;;;;;;;4993056;28;20030;-63
2023/06/10 05:07:40;;;;;;;12.20;11.65;;;;;;;;;;4993252;28;20030;-64
2023/06/10 05:10:06;;;;;;;12.10;11.60;;;;;;;;;;4982875;28;20101;-64
2023/06/10 05:12:31;;;;;;;12.10;11.60;;;;;;;;;;4990194;28;20022;-64
2023/06/10 05:14:56;;;;;;;12.00;11.50;;;;;;;;;;4990612;28;20026;-63
2023/06/10 05:17:22;;;;;;;12.10;11.60;;;;;;;;;;4989957;28;20351;-64
2023/06/10 05:19:48;;;;;;;11.80;11.30;;;;;;;;;;4990980;28;20767;-64
2023/06/10 05:22:14;;;;;;;12.13;11.63;;;;;;;;;;4994792;28;20072;-65
2023/06/10 05:24:39;;;;;;;11.85;11.35;;;;;;;;;;4985303;28;20069;-65
2023/06/10 05:27:06;;;;;;;12.48;11.88;;;;;;;;;;4989143;28;20093;-61
2023/06/10 05:29:32;;;;;;;12.23;11.68;;;;;;;;;;4984977;28;20038;-61
2023/06/10 05:32:00;;;;;;;11.90;11.40;;;;;;;;;;4994977;28;20026;-61
2023/06/10 05:34:25;;;;;;;11.90;11.40;;;;;;;;;;4986941;28;20027;-61
2023/06/10 05:36:50;;;;;;;12.10;11.60;;;;;;;;;;4990922;28;20018;-61
2023/06/10 05:39:16;;;;;;;12.07;11.57;;;;;;;;;;4988967;28;20037;-61
2023/06/10 05:41:41;;;;;;;12.07;11.57;;;;;;;;;;4988178;28;20050;-62
2023/06/10 05:44:06;;;;;;;12.10;11.60;;;;;;;;;;4982353;28;20799;-61
2023/06/10 05:46:32;;;;;;;12.15;11.65;;;;;;;;;;4987606;28;20272;-62
2023/06/10 05:48:57;;;;;;;11.63;11.13;;;;;;;;;;4989769;28;20478;-62
2023/06/10 05:51:22;;;;;;;12.10;11.60;;;;;;;;;;4982852;28;20022;-62
2023/06/10 05:53:48;;;;;;;12.00;11.50;;;;;;;;;;4984888;28;20143;-62
2023/06/10 05:56:14;;;;;;;11.60;11.10;;;;;;;;;;4976093;28;20026;-62
2023/06/10 05:58:39;;;;;;;13.13;12.52;;;;;;;;;;4980343;28;20021;-62
2023/06/10 06:01:04;;;;;;;11.70;11.20;;;;;;;;;;4975726;28;20018;-63
2023/06/10 06:03:30;;;;;;;12.57;11.98;;;;;;;;;;4974213;28;20422;-62
2023/06/10 06:05:55;;;;;;;11.80;11.30;;;;;;;;;;4982250;28;20022;-62
2023/06/10 06:08:20;;;;;;;12.33;11.73;;;;;;;;;;4978396;28;20027;-63
2023/06/10 06:10:50;;;;;;;12.00;11.50;;;;;;;;;;4986413;28;20429;-63
2023/06/10 06:13:15;;;;;;;12.30;11.73;;;;;;;;;;4977068;28;20017;-63
2023/06/10 06:15:40;;;;;;;12.02;11.52;;;;;;;;;;4982597;28;20590;-62
2023/06/10 06:18:06;;;;;;;12.07;11.57;;;;;;;;;;4980514;28;20065;-63
2023/06/10 06:20:31;;;;;;;11.98;11.48;;;;;;;;;;4983893;28;20219;-63
2023/06/10 06:22:56;;;;;;;11.93;11.43;;;;;;;;;;4979312;28;20025;-62
2023/06/10 06:25:22;;;;;;;12.05;11.55;;;;;;;;;;4980593;28;20288;-63
2023/06/10 06:27:48;;;;;;;12.40;11.80;;;;;;;;;;4986323;28;21213;-62
2023/06/10 06:30:13;;;;;;;12.00;11.50;;;;;;;;;;4984921;28;20052;-64
2023/06/10 06:32:39;;;;;;;12.60;12.00;;;;;;;;;;4983994;28;20137;-62
2023/06/10 06:35:07;;;;;;;11.63;11.13;;;;;;;;;;4986771;28;20019;-64
2023/06/10 06:37:32;;;;;;;11.95;11.45;;;;;;;;;;4981792;28;20739;-62
2023/06/10 06:39:58;;;;;;;12.00;11.50;;;;;;;;;;4983732;28;20026;-63
2023/06/10 06:42:23;;;;;;;12.00;11.50;;;;;;;;;;4982186;28;20297;-62
2023/06/10 06:44:49;;;;;;;11.65;11.15;;;;;;;;;;4987316;28;20030;-62
2023/06/10 06:47:14;;;;;;;11.90;11.40;;;;;;;;;;4990335;28;20508;-63
2023/06/10 06:49:39;;;;;;;11.90;11.40;;;;;;;;;;4992487;28;20272;-63
2023/06/10 06:52:05;;;;;;;12.05;11.55;;;;;;;;;;4991367;28;20106;-62
2023/06/10 06:54:30;;;;;;;11.60;11.10;;;;;;;;;;4984344;28;20058;-61
2023/06/10 06:56:56;;;;;;;11.93;11.43;;;;;;;;;;4981945;28;20103;-61
2023/06/10 06:59:22;;;;;;;11.55;11.05;;;;;;;;;;4988018;28;20402;-63
2023/06/10 07:01:47;;;;;;;11.80;11.30;;;;;;;;;;4990189;28;20030;-63
2023/06/10 07:04:14;;;;;;;11.80;11.30;;;;;;;;;;4988928;28;20031;-62
2023/06/10 07:06:40;;;;;;;11.70;11.20;;;;;;;;;;4981075;28;20026;-64
2023/06/10 07:09:06;;;;;;;11.70;11.20;;;;;;;;;;4984210;28;20038;-61
2023/06/10 07:11:31;;;;;;;11.90;11.40;;;;;;;;;;4989135;28;20037;-62
2023/06/10 07:13:57;;;;;;;11.63;11.13;;;;;;;;;;4991105;28;20025;-65
2023/06/10 07:16:22;;;;;;;11.75;11.25;;;;;;;;;;4981448;28;20450;-64
2023/06/10 07:18:47;;;;;;;11.77;11.27;;;;;;;;;;4979821;28;20109;-64
2023/06/10 07:21:13;;;;;;;11.60;11.10;;;;;;;;;;4986372;28;20029;-62
2023/06/10 07:23:41;;;;;;;11.73;11.23;;;;;;;;;;4987363;28;20112;-62
2023/06/10 07:26:07;;;;;;;11.98;11.48;;;;;;;;;;4983047;28;20026;-62
2023/06/10 07:28:33;;;;;;;12.55;11.95;;;;;;;;;;4988114;28;20040;-62
2023/06/10 07:30:58;;;;;;;11.82;11.32;;;;;;;;;;4985622;28;20026;-62
2023/06/10 07:33:23;;;;;;;11.77;11.27;;;;;;;;;;4987940;28;20027;-63
2023/06/10 07:35:49;;;;;;;11.73;11.23;;;;;;;;;;4984222;28;20027;-62
2023/06/10 07:38:14;;;;;;;12.13;11.63;;;;;;;;;;4980653;28;20019;-62
2023/06/10 07:40:39;;;;;;;12.43;11.90;;;;;;;;;;4976358;28;20028;-62
2023/06/10 07:43:05;;;;;;;12.20;11.70;;;;;;;;;;4981172;28;20113;-63
2023/06/10 07:45:31;;;;;;;12.48;11.88;;;;;;;;;;4977722;28;20041;-63
2023/06/10 07:47:56;;;;;;;12.43;11.82;;;;;;;;;;4987095;28;20027;-64
2023/06/10 07:50:21;;;;;;;12.57;11.97;;;;;;;;;;4989252;28;20452;-65
2023/06/10 07:52:47;;;;;;;12.97;12.37;;;;;;;;;;4987389;28;20284;-65
2023/06/10 07:55:12;;;;;;;11.93;11.43;;;;;;;;;;4988924;28;20339;-65
2023/06/10 07:57:38;;;;;;;12.35;11.75;;;;;;;;;;4981042;28;20100;-65
2023/06/10 08:00:04;;;;;;;12.38;11.77;;;;;;;;;;4978222;28;20031;-64
2023/06/10 08:02:29;;;;;;;11.93;11.43;;;;;;;;;;4973890;28;20027;-64
2023/06/10 08:04:55;;;;;;;11.90;11.40;;;;;;;;;;4979570;28;20054;-64
2023/06/10 08:07:20;;;;;;;11.98;11.48;;;;;;;;;;4979035;28;20617;-64
2023/06/10 08:09:45;;;;;;;12.40;11.80;;;;;;;;;;4980911;28;20451;-64
2023/06/10 08:12:11;;;;;;;11.40;10.90;;;;;;;;;;4988103;28;20463;-65
2023/06/10 08:14:36;;;;;;;13.05;12.45;;;;;;;;;;4990435;28;20244;-65
2023/06/10 08:17:04;;;;;;;11.70;11.20;;;;;;;;;;4985241;28;20113;-63
2023/06/10 08:19:30;;;;;;;12.35;11.75;;;;;;;;;;4982618;28;20037;-64
2023/06/10 08:21:56;;;;;;;11.93;11.43;;;;;;;;;;4977184;28;20038;-62
2023/06/10 08:24:21;;;;;;;11.63;11.13;;;;;;;;;;4974792;28;20047;-63
2023/06/10 08:26:46;;;;;;;11.80;11.30;;;;;;;;;;4975982;28;20117;-63
2023/06/10 08:29:12;;;;;;;12.98;12.38;;;;;;;;;;4977264;28;20299;-61
2023/06/10 08:31:43;;;;;;;12.25;11.68;;;;;;;;;;4978848;28;20346;-62
2023/06/10 08:34:09;;;;;;;12.35;11.75;;;;;;;;;;4978153;28;20019;-61
2023/06/10 08:36:35;;;;;;;11.90;11.40;;;;;;;;;;4979241;28;20023;-61
2023/06/10 08:39:00;;;;;;;11.90;11.40;;;;;;;;;;4983542;28;20034;-61
2023/06/10 08:41:28;;;;;;;12.68;12.07;;;;;;;;;;4985828;28;20497;-61
2023/06/10 08:43:59;;;;;;;12.23;11.65;;;;;;;;;;4988559;28;20168;-60
2023/06/10 08:46:24;;;;;;;11.77;11.27;;;;;;;;;;4993475;28;20068;-61
2023/06/10 08:48:52;;;;;;;11.95;11.45;;;;;;;;;;4989666;28;20161;-61
2023/06/10 08:51:17;;;;;;;11.95;11.45;;;;;;;;;;4990418;28;20026;-61
2023/06/10 08:53:48;;;;;;;12.00;11.50;;;;;;;;;;4988836;28;20419;-60
2023/06/10 08:56:14;;;;;;;12.05;11.50;;;;;;;;;;4991664;28;20018;-63
2023/06/10 08:58:41;;;;;;;12.88;12.27;;;;;;;;;;4990985;28;20033;-61
2023/06/10 09:01:07;;;;;;;12.05;11.55;;;;;;;;;;4986108;28;20034;-61
2023/06/10 09:03:33;;;;;;;12.60;12.00;;;;;;;;;;4990034;28;20037;-61
2023/06/10 09:05:59;;;;;;;11.82;11.32;;;;;;;;;;4991012;28;20044;-61
2023/06/10 09:08:24;;;;;;;12.40;11.80;;;;;;;;;;4987643;28;20041;-60
2023/06/10 09:10:49;;;;;;;12.30;11.73;;;;;;;;;;4987336;28;20022;-60
2023/06/10 09:13:18;;;;;;;11.67;11.17;;;;;;;;;;4987856;28;20071;-60
2023/06/10 09:15:44;;;;;;;12.73;12.13;;;;;;;;;;4988443;28;20270;-60
2023/06/10 09:18:09;;;;;;;12.60;12.00;;;;;;;;;;4987682;28;20478;-61
2023/06/10 09:20:35;;;;;;;12.00;11.50;;;;;;;;;;4983598;28;20033;-61
2023/06/10 09:23:01;;;;;;;12.30;11.70;;;;;;;;;;4983424;28;20450;-60
2023/06/10 09:25:39;;;;;;;11.90;11.40;;;;;;;;;;4985130;28;20084;-60
2023/06/10 09:28:05;;;;;;;12.27;11.70;;;;;;;;;;4982453;28;20042;-62
2023/06/10 09:30:31;;;;;;;12.52;11.93;;;;;;;;;;4983077;28;20015;-67
2023/06/10 09:32:57;;;;;;;12.45;11.85;;;;;;;;;;4981822;28;20512;-61
2023/06/10 09:35:23;;;;;;;12.00;11.50;;;;;;;;;;4981082;28;20023;-60
2023/06/10 09:37:52;;;;;;;12.32;11.73;;;;;;;;;;4985590;28;20471;-60
2023/06/10 09:40:18;;;;;;;11.70;11.20;;;;;;;;;;4982171;28;20019;-60
2023/06/10 09:42:43;;;;;;;12.15;11.55;;;;;;;;;;4991111;28;20501;-61
2023/06/10 09:45:08;;;;;;;12.13;11.55;;;;;;;;;;4986545;28;20485;-60
2023/06/10 09:47:34;;;;;;;12.55;11.95;;;;;;;;;;4986604;28;20027;-61
2023/06/10 09:49:59;;;;;;;12.35;11.75;;;;;;;;;;4987546;28;20029;-61
2023/06/10 09:52:26;;;;;;;12.02;11.52;;;;;;;;;;4986800;28;20019;-61
2023/06/10 09:54:52;;;;;;;12.35;11.75;;;;;;;;;;4979724;28;20025;-61
2023/06/10 09:57:17;;;;;;;12.52;11.93;;;;;;;;;;4982051;28;20028;-61
2023/06/10 09:59:45;;;;;;;12.60;12.00;;;;;;;;;;4983856;28;20545;-61
2023/06/10 10:02:16;;;;;;;12.95;12.35;;;;;;;;;;4983135;28;20402;-62
2023/06/10 10:04:45;;;;;;;12.40;11.80;;;;;;;;;;4985598;28;20085;-65
2023/06/10 10:07:10;;;;;;;12.32;11.73;;;;;;;;;;4986561;28;20402;-65
2023/06/10 10:09:39;;;;;;;12.40;11.80;;;;;;;;;;4983348;28;20100;-65
2023/06/10 10:12:08;;;;;;;11.43;10.93;;;;;;;;;;4985665;28;20022;-66
2023/06/10 10:14:33;;;;;;;11.77;11.27;;;;;;;;;;4985974;28;20025;-66
2023/06/10 10:17:00;;;;;;;11.75;11.25;;;;;;;;;;4985030;28;20023;-66
2023/06/10 10:19:30;;;;;;;11.77;11.27;;;;;;;;;;4992386;28;20026;-66
2023/06/10 10:22:09;;;;;;;12.55;11.95;;;;;;;;;;4987570;28;20346;-66
2023/06/10 10:24:38;;;;;;;11.43;10.93;;;;;;;;;;4986703;28;20128;-66
2023/06/10 10:27:07;;;;;;;12.38;11.77;;;;;;;;;;4986195;28;20053;-65
2023/06/10 10:29:39;;;;;;;11.43;10.93;;;;;;;;;;4984122;28;20038;-69
2023/06/10 10:32:06;;;;;;;11.70;11.20;;;;;;;;;;4988053;28;20022;-66
2023/06/10 10:34:55;;;;;;;12.00;11.50;;;;;;;;;;4986919;28;20026;-66
2023/06/10 10:37:21;;;;;;;12.13;11.52;;;;;;;;;;4982850;28;20018;-66
2023/06/10 10:39:47;;;;;;;12.90;12.30;;;;;;;;;;4981730;28;20386;-66
2023/06/10 10:42:13;;;;;;;11.68;11.18;;;;;;;;;;4984715;28;20100;-64
2023/06/10 10:44:38;;;;;;;11.57;11.07;;;;;;;;;;4986821;28;20448;-66
2023/06/10 10:47:04;;;;;;;11.98;11.48;;;;;;;;;;4987637;28;20069;-66
2023/06/10 10:49:30;;;;;;;12.00;11.50;;;;;;;;;;4990434;28;20026;-66
2023/06/10 10:51:57;;;;;;;12.40;11.80;;;;;;;;;;4991939;28;20153;-66
2023/06/10 10:54:29;;;;;;;12.07;11.48;;;;;;;;;;4984750;28;20112;-66
2023/06/10 10:57:13;;;;;;;11.70;11.20;;;;;;;;;;4984835;28;20041;-65
2023/06/10 10:59:45;;;;;;;11.90;11.40;;;;;;;;;;4984289;28;20118;-66
2023/06/10 11:02:10;;;;;;;12.82;12.23;;;;;;;;;;4983703;28;20037;-64
2023/06/10 11:04:35;;;;;;;11.90;11.40;;;;;;;;;;4982892;28;20034;-66
2023/06/10 11:07:07;;;;;;;12.30;11.70;;;;;;;;;;4985508;28;20117;-65
2023/06/10 11:09:32;;;;;;;12.65;12.05;;;;;;;;;;4978241;28;20163;-65
2023/06/10 11:12:01;;;;;;;11.88;11.38;;;;;;;;;;4990581;28;20026;-65
2023/06/10 11:14:30;;;;;;;12.32;11.73;;;;;;;;;;4973894;28;20426;-64
2023/06/10 11:16:58;;;;;;;11.80;11.30;;;;;;;;;;4990560;28;20026;-65
2023/06/10 11:19:34;;;;;;;12.18;11.57;;;;;;;;;;4991007;28;20026;-65
2023/06/10 11:22:05;;;;;;;11.77;11.27;;;;;;;;;;4979456;28;20030;-65
2023/06/10 11:24:30;;;;;;;12.00;11.45;;;;;;;;;;4981821;28;20030;-64
2023/06/10 11:27:14;;;;;;;12.70;12.10;;;;;;;;;;4989873;28;20049;-65
2023/06/10 11:29:39;;;;;;;12.88;12.27;;;;;;;;;;4983122;28;20041;-66
2023/06/10 11:32:06;;;;;;;12.57;11.98;;;;;;;;;;4981824;28;20031;-65
2023/06/10 11:34:31;;;;;;;12.45;11.85;;;;;;;;;;4990131;28;20045;-65
2023/06/10 11:36:57;;;;;;;11.88;11.38;;;;;;;;;;4986159;28;20131;-64
2023/06/10 11:39:24;;;;;;;11.85;11.35;;;;;;;;;;4988783;28;20109;-65
2023/06/10 11:41:50;;;;;;;12.75;12.15;;;;;;;;;;4987411;28;20026;-65
2023/06/10 11:44:16;;;;;;;11.93;11.43;;;;;;;;;;4982945;28;20114;-65
2023/06/10 11:46:44;;;;;;;12.18;11.60;;;;;;;;;;4977663;28;20583;-64
2023/06/10 11:49:10;;;;;;;12.43;11.82;;;;;;;;;;4976456;28;20533;-66
2023/06/10 11:51:36;;;;;;;11.82;11.32;;;;;;;;;;4983644;28;20027;-65
2023/06/10 11:54:02;;;;;;;12.50;11.90;;;;;;;;;;4979211;28;20066;-65
2023/06/10 11:56:28;;;;;;;12.50;11.90;;;;;;;;;;4980232;28;20026;-64
2023/06/10 11:58:55;;;;;;;12.40;11.80;;;;;;;;;;4985048;28;20030;-65
2023/06/10 12:01:22;;;;;;;12.23;11.63;;;;;;;;;;4982841;28;20047;-65
2023/06/10 12:03:47;;;;;;;11.82;11.32;;;;;;;;;;4981776;28;20030;-61
2023/06/10 12:06:12;;;;;;;12.20;11.63;;;;;;;;;;4976965;28;20389;-63
2023/06/10 12:08:41;;;;;;;11.70;11.20;;;;;;;;;;4981488;28;20027;-63
2023/06/10 12:11:06;;;;;;;11.93;11.43;;;;;;;;;;4979436;28;20264;-62
2023/06/10 12:13:32;;;;;;;12.35;11.75;;;;;;;;;;4980807;28;20027;-62
2023/06/10 12:16:09;;;;;;;13.38;12.75;;;;;;;;;;4976748;28;20039;-62
2023/06/10 12:18:35;;;;;;;13.13;12.52;;;;;;;;;;4980541;28;20042;-61
2023/06/10 12:21:00;;;;;;;11.57;11.07;;;;;;;;;;4989428;28;20457;-62
2023/06/10 12:23:25;;;;;;;12.32;11.73;;;;;;;;;;4980914;28;20378;-62
2023/06/10 12:25:54;;;;;;;12.00;11.50;;;;;;;;;;4983377;28;20561;-65
2023/06/10 12:28:23;;;;;;;11.20;10.70;;;;;;;;;;4982004;28;20038;-64
2023/06/10 12:30:49;;;;;;;11.82;11.32;;;;;;;;;;4989544;28;20026;-63
2023/06/10 12:33:18;;;;;;;11.32;10.82;;;;;;;;;;4977540;28;20015;-64
2023/06/10 12:35:50;;;;;;;11.45;10.95;;;;;;;;;;4990431;28;20092;-64
2023/06/10 12:38:21;;;;;;;11.63;11.13;;;;;;;;;;4988461;28;20030;-63
2023/06/10 12:40:47;;;;;;;11.80;11.30;;;;;;;;;;4991221;28;20029;-64
2023/06/10 12:43:12;;;;;;;11.60;11.10;;;;;;;;;;4977073;28;20109;-64
2023/06/10 12:45:44;;;;;;;11.65;11.15;;;;;;;;;;4985211;28;20105;-64
2023/06/10 12:48:11;;;;;;;12.05;11.52;;;;;;;;;;4980928;28;20078;-64
2023/06/10 12:50:38;;;;;;;12.18;11.60;;;;;;;;;;4996486;28;20482;-64
2023/06/10 12:53:04;;;;;;;12.35;11.75;;;;;;;;;;4985803;28;20073;-64
2023/06/10 12:55:30;;;;;;;12.55;11.95;;;;;;;;;;4988592;28;20425;-64
2023/06/10 12:57:56;;;;;;;11.82;11.32;;;;;;;;;;4995269;28;20033;-64
2023/06/10 13:00:22;;;;;;;11.93;11.43;;;;;;;;;;4989282;28;20023;-64
2023/06/10 13:02:48;;;;;;;11.82;11.32;;;;;;;;;;4989682;28;20382;-63
2023/06/10 13:05:14;;;;;;;13.43;12.82;;;;;;;;;;4987976;28;20473;-63
2023/06/10 13:07:39;;;;;;;12.35;11.75;;;;;;;;;;4988115;28;20038;-63
2023/06/10 13:10:05;;;;;;;12.68;12.07;;;;;;;;;;4993620;28;20022;-64
2023/06/10 13:12:30;;;;;;;15.10;14.30;;;;;;;;;;4990145;28;20080;-63
2023/06/10 13:14:55;;;;;;;12.75;12.15;;;;;;;;;;4982981;28;20042;-62
2023/06/10 13:17:21;;;;;;;11.50;11.00;;;;;;;;;;4983512;28;20029;-64
2023/06/10 13:19:46;;;;;;;11.65;11.15;;;;;;;;;;4985405;28;20030;-63
2023/06/10 13:22:11;;;;;;;11.55;11.05;;;;;;;;;;4987288;28;20081;-64
2023/06/10 13:24:39;;;;;;;12.10;11.50;;;;;;;;;;4990634;28;20026;-64
2023/06/10 13:27:06;;;;;;;11.48;10.98;;;;;;;;;;4992995;28;20121;-64
2023/06/10 13:29:31;;;;;;;12.35;11.75;;;;;;;;;;4981397;28;20201;-64
2023/06/10 13:31:56;;;;;;;10.98;10.48;;;;;;;;;;4986995;28;20521;-64
2023/06/10 13:34:22;;;;;;;11.75;11.25;;;;;;;;;;4989205;28;20109;-64
2023/06/10 13:36:47;;;;;;;12.20;11.60;;;;;;;;;;4991135;28;20022;-63
2023/06/10 13:39:13;;;;;;;11.60;11.10;;;;;;;;;;4990939;28;20260;-63
2023/06/10 13:41:39;;;;;;;11.90;11.40;;;;;;;;;;4987410;28;20510;-63
2023/06/10 13:44:06;;;;;;;11.40;10.90;;;;;;;;;;4992113;28;20030;-63
2023/06/10 13:46:31;;;;;;;11.25;10.75;;;;;;;;;;4989429;28;20481;-64
2023/06/10 13:48:56;;;;;;;12.27;11.68;;;;;;;;;;4980893;28;20045;-64
2023/06/10 13:51:22;;;;;;;12.88;12.27;;;;;;;;;;4989461;28;20544;-64
2023/06/10 13:53:47;;;;;;;11.93;11.40;;;;;;;;;;4990659;28;20029;-64
2023/06/10 13:56:14;;;;;;;11.35;10.85;;;;;;;;;;4989488;28;20022;-64
2023/06/10 13:58:40;;;;;;;11.60;11.10;;;;;;;;;;4989706;28;20031;-63
2023/06/10 14:01:06;;;;;;;11.80;11.30;;;;;;;;;;4989170;28;20121;-64
2023/06/10 14:03:31;;;;;;;11.88;11.38;;;;;;;;;;4988929;28;20462;-63
2023/06/10 14:05:57;;;;;;;11.63;11.13;;;;;;;;;;4987508;28;20031;-63
2023/06/10 14:08:22;;;;;;;11.85;11.32;;;;;;;;;;4984442;28;20280;-63
2023/06/10 14:10:48;;;;;;;11.32;10.82;;;;;;;;;;4992035;28;20037;-63